sensor_id;sensor_type;location;lat;lon;timestamp;temperature;humidity
37560;DHT22;23398;50.928;7.084;2022-10-22T00:01:10;16.80;95.20
37560;DHT22;23398;50.928;7.084;2022-10-22T00:03:35;17.10;95.30
37560;DHT22;23398;50.928;7.084;2022-10-22T00:06:01;16.90;95.20
37560;DHT22;23398;50.928;7.084;2022-10-22T00:08:27;17.30;95.40
37560;DHT22;23398;50.928;7.084;2022-10-22T00:10:52;17.00;95.30
37560;DHT22;23398;50.928;7.084;2022-10-22T00:13:18;16.90;95.30
37560;DHT22;23398;50.928;7.084;2022-10-22T00:15:44;16.90;95.30
37560;DHT22;23398;50.928;7.084;2022-10-22T00:18:09;17.10;95.50
37560;DHT22;23398;50.928;7.084;2022-10-22T00:20:35;16.90;95.40
37560;DHT22;23398;50.928;7.084;2022-10-22T00:23:00;16.90;95.40
37560;DHT22;23398;50.928;7.084;2022-10-22T00:25:26;16.90;95.40
37560;DHT22;23398;50.928;7.084;2022-10-22T00:27:52;16.90;95.40
37560;DHT22;23398;50.928;7.084;2022-10-22T00:30:17;16.90;95.40
37560;DHT22;23398;50.928;7.084;2022-10-22T00:32:43;17.00;95.50
37560;DHT22;23398;50.928;7.084;2022-10-22T00:35:08;17.00;95.50
37560;DHT22;23398;50.928;7.084;2022-10-22T00:37:34;17.00;95.50
37560;DHT22;23398;50.928;7.084;2022-10-22T00:39:59;17.00;95.60
37560;DHT22;23398;50.928;7.084;2022-10-22T00:42:26;17.00;95.60
37560;DHT22;23398;50.928;7.084;2022-10-22T00:45:02;17.00;95.50
37560;DHT22;23398;50.928;7.084;2022-10-22T00:48:02;17.10;95.60
37560;DHT22;23398;50.928;7.084;2022-10-22T00:50:50;17.00;95.60
37560;DHT22;23398;50.928;7.084;2022-10-22T00:53:23;17.10;95.60
37560;DHT22;23398;50.928;7.084;2022-10-22T00:55:51;17.10;95.50
37560;DHT22;23398;50.928;7.084;2022-10-22T00:58:20;17.10;95.40
37560;DHT22;23398;50.928;7.084;2022-10-22T01:00:47;17.20;95.40
37560;DHT22;23398;50.928;7.084;2022-10-22T01:03:13;17.20;95.40
37560;DHT22;23398;50.928;7.084;2022-10-22T01:05:42;17.20;95.40
37560;DHT22;23398;50.928;7.084;2022-10-22T01:08:14;17.20;95.40
37560;DHT22;23398;50.928;7.084;2022-10-22T01:10:45;17.40;95.30
37560;DHT22;23398;50.928;7.084;2022-10-22T01:13:21;17.10;95.10
37560;DHT22;23398;50.928;7.084;2022-10-22T01:18:41;17.20;95.00
37560;DHT22;23398;50.928;7.084;2022-10-22T01:21:19;17.20;94.90
37560;DHT22;23398;50.928;7.084;2022-10-22T01:29:25;17.10;94.50
37560;DHT22;23398;50.928;7.084;2022-10-22T01:32:00;17.10;94.30
37560;DHT22;23398;50.928;7.084;2022-10-22T01:34:28;17.40;94.30
37560;DHT22;23398;50.928;7.084;2022-10-22T01:36:55;17.00;94.20
37560;DHT22;23398;50.928;7.084;2022-10-22T01:39:23;17.30;94.40
37560;DHT22;23398;50.928;7.084;2022-10-22T01:41:49;16.90;94.30
37560;DHT22;23398;50.928;7.084;2022-10-22T01:44:32;16.90;94.40
37560;DHT22;23398;50.928;7.084;2022-10-22T01:56:03;16.70;93.90
37560;DHT22;23398;50.928;7.084;2022-10-22T02:01:57;16.60;94.20
37560;DHT22;23398;50.928;7.084;2022-10-22T02:04:30;16.60;94.40
37560;DHT22;23398;50.928;7.084;2022-10-22T02:07:01;16.50;94.40
37560;DHT22;23398;50.928;7.084;2022-10-22T02:09:29;16.50;94.50
37560;DHT22;23398;50.928;7.084;2022-10-22T02:11:59;16.50;94.60
37560;DHT22;23398;50.928;7.084;2022-10-22T02:14:28;16.50;94.80
37560;DHT22;23398;50.928;7.084;2022-10-22T02:16:56;16.50;94.80
37560;DHT22;23398;50.928;7.084;2022-10-22T02:20:05;16.50;94.90
37560;DHT22;23398;50.928;7.084;2022-10-22T02:22:25;16.50;95.10
37560;DHT22;23398;50.928;7.084;2022-10-22T02:24:51;16.50;95.10
37560;DHT22;23398;50.928;7.084;2022-10-22T02:27:29;16.60;95.20
37560;DHT22;23398;50.928;7.084;2022-10-22T02:30:03;16.50;95.20
37560;DHT22;23398;50.928;7.084;2022-10-22T02:32:40;16.50;95.00
37560;DHT22;23398;50.928;7.084;2022-10-22T02:35:08;16.50;95.00
37560;DHT22;23398;50.928;7.084;2022-10-22T02:37:36;16.50;95.00
37560;DHT22;23398;50.928;7.084;2022-10-22T02:40:02;16.50;95.10
37560;DHT22;23398;50.928;7.084;2022-10-22T02:42:29;16.50;95.10
37560;DHT22;23398;50.928;7.084;2022-10-22T02:44:54;16.50;95.20
37560;DHT22;23398;50.928;7.084;2022-10-22T02:47:20;16.50;95.30
37560;DHT22;23398;50.928;7.084;2022-10-22T02:49:45;16.50;95.40
37560;DHT22;23398;50.928;7.084;2022-10-22T02:52:11;16.60;95.50
37560;DHT22;23398;50.928;7.084;2022-10-22T02:54:37;16.50;95.40
37560;DHT22;23398;50.928;7.084;2022-10-22T02:57:02;16.50;95.30
37560;DHT22;23398;50.928;7.084;2022-10-22T02:59:28;16.50;95.20
37560;DHT22;23398;50.928;7.084;2022-10-22T03:01:53;16.50;95.10
37560;DHT22;23398;50.928;7.084;2022-10-22T03:04:19;16.50;95.00
37560;DHT22;23398;50.928;7.084;2022-10-22T03:06:45;16.50;94.80
37560;DHT22;23398;50.928;7.084;2022-10-22T03:09:13;16.60;94.80
37560;DHT22;23398;50.928;7.084;2022-10-22T03:11:38;16.40;94.80
37560;DHT22;23398;50.928;7.084;2022-10-22T03:14:04;16.40;94.80
37560;DHT22;23398;50.928;7.084;2022-10-22T03:16:29;16.40;94.90
37560;DHT22;23398;50.928;7.084;2022-10-22T03:18:55;16.70;95.00
37560;DHT22;23398;50.928;7.084;2022-10-22T03:24:14;16.40;94.80
37560;DHT22;23398;50.928;7.084;2022-10-22T03:26:40;16.30;94.70
37560;DHT22;23398;50.928;7.084;2022-10-22T03:29:09;16.30;94.60
37560;DHT22;23398;50.928;7.084;2022-10-22T03:31:34;16.30;94.70
37560;DHT22;23398;50.928;7.084;2022-10-22T03:34:00;16.30;94.70
37560;DHT22;23398;50.928;7.084;2022-10-22T03:36:25;16.30;94.80
37560;DHT22;23398;50.928;7.084;2022-10-22T03:38:51;16.20;94.80
37560;DHT22;23398;50.928;7.084;2022-10-22T03:41:17;16.20;94.80
37560;DHT22;23398;50.928;7.084;2022-10-22T03:43:42;16.20;94.80
37560;DHT22;23398;50.928;7.084;2022-10-22T03:46:13;16.20;94.80
37560;DHT22;23398;50.928;7.084;2022-10-22T03:48:39;16.10;94.70
37560;DHT22;23398;50.928;7.084;2022-10-22T03:51:04;16.10;94.80
37560;DHT22;23398;50.928;7.084;2022-10-22T03:53:30;16.40;95.20
37560;DHT22;23398;50.928;7.084;2022-10-22T03:55:56;16.20;95.30
37560;DHT22;23398;50.928;7.084;2022-10-22T03:58:21;16.20;95.50
37560;DHT22;23398;50.928;7.084;2022-10-22T04:00:47;16.20;95.70
37560;DHT22;23398;50.928;7.084;2022-10-22T04:03:12;16.20;95.80
37560;DHT22;23398;50.928;7.084;2022-10-22T04:05:38;16.20;95.90
37560;DHT22;23398;50.928;7.084;2022-10-22T04:08:04;16.20;95.90
37560;DHT22;23398;50.928;7.084;2022-10-22T04:10:29;16.20;96.00
37560;DHT22;23398;50.928;7.084;2022-10-22T04:12:55;16.20;96.00
37560;DHT22;23398;50.928;7.084;2022-10-22T04:15:20;16.30;96.00
37560;DHT22;23398;50.928;7.084;2022-10-22T04:17:46;16.20;95.80
37560;DHT22;23398;50.928;7.084;2022-10-22T04:20:11;16.20;95.70
37560;DHT22;23398;50.928;7.084;2022-10-22T04:22:37;16.20;95.70
37560;DHT22;23398;50.928;7.084;2022-10-22T04:25:03;16.60;95.90
37560;DHT22;23398;50.928;7.084;2022-10-22T04:27:33;16.30;95.70
37560;DHT22;23398;50.928;7.084;2022-10-22T04:29:59;16.40;95.90
37560;DHT22;23398;50.928;7.084;2022-10-22T04:32:25;16.40;95.90
37560;DHT22;23398;50.928;7.084;2022-10-22T04:34:51;16.20;95.90
37560;DHT22;23398;50.928;7.084;2022-10-22T04:37:16;16.20;96.00
37560;DHT22;23398;50.928;7.084;2022-10-22T04:39:42;16.30;96.10
37560;DHT22;23398;50.928;7.084;2022-10-22T04:42:07;16.30;96.10
37560;DHT22;23398;50.928;7.084;2022-10-22T04:44:33;16.40;96.20
37560;DHT22;23398;50.928;7.084;2022-10-22T04:46:59;16.30;96.00
37560;DHT22;23398;50.928;7.084;2022-10-22T04:49:24;16.30;95.90
37560;DHT22;23398;50.928;7.084;2022-10-22T04:51:50;16.30;95.80
37560;DHT22;23398;50.928;7.084;2022-10-22T04:54:15;16.30;95.80
37560;DHT22;23398;50.928;7.084;2022-10-22T04:56:41;16.30;95.70
37560;DHT22;23398;50.928;7.084;2022-10-22T04:59:08;16.70;95.70
37560;DHT22;23398;50.928;7.084;2022-10-22T05:01:40;16.30;95.20
37560;DHT22;23398;50.928;7.084;2022-10-22T05:04:07;16.20;95.10
37560;DHT22;23398;50.928;7.084;2022-10-22T05:06:36;16.30;95.10
37560;DHT22;23398;50.928;7.084;2022-10-22T05:09:07;16.20;95.20
37560;DHT22;23398;50.928;7.084;2022-10-22T05:11:35;16.10;95.20
37560;DHT22;23398;50.928;7.084;2022-10-22T05:14:04;16.10;95.10
37560;DHT22;23398;50.928;7.084;2022-10-22T05:16:31;16.00;94.90
37560;DHT22;23398;50.928;7.084;2022-10-22T05:18:58;16.00;94.80
37560;DHT22;23398;50.928;7.084;2022-10-22T05:21:24;16.00;94.80
37560;DHT22;23398;50.928;7.084;2022-10-22T05:23:51;16.20;95.00
37560;DHT22;23398;50.928;7.084;2022-10-22T05:26:19;15.90;95.10
37560;DHT22;23398;50.928;7.084;2022-10-22T05:28:46;15.90;95.20
37560;DHT22;23398;50.928;7.084;2022-10-22T05:31:12;16.20;95.40
37560;DHT22;23398;50.928;7.084;2022-10-22T05:33:39;15.80;95.40
37560;DHT22;23398;50.928;7.084;2022-10-22T05:36:06;15.80;95.50
37560;DHT22;23398;50.928;7.084;2022-10-22T05:38:32;15.80;95.70
37560;DHT22;23398;50.928;7.084;2022-10-22T05:41:19;15.80;95.70
37560;DHT22;23398;50.928;7.084;2022-10-22T05:43:45;15.70;95.90
37560;DHT22;23398;50.928;7.084;2022-10-22T05:46:16;15.70;95.70
37560;DHT22;23398;50.928;7.084;2022-10-22T05:48:42;15.70;95.60
37560;DHT22;23398;50.928;7.084;2022-10-22T05:51:12;15.70;95.40
37560;DHT22;23398;50.928;7.084;2022-10-22T05:53:40;15.80;95.30
37560;DHT22;23398;50.928;7.084;2022-10-22T05:56:10;15.60;95.10
37560;DHT22;23398;50.928;7.084;2022-10-22T05:58:36;15.60;95.20
37560;DHT22;23398;50.928;7.084;2022-10-22T06:01:03;15.90;95.30
37560;DHT22;23398;50.928;7.084;2022-10-22T06:03:29;15.60;95.20
37560;DHT22;23398;50.928;7.084;2022-10-22T06:05:58;15.50;95.30
37560;DHT22;23398;50.928;7.084;2022-10-22T06:08:24;15.50;95.50
37560;DHT22;23398;50.928;7.084;2022-10-22T06:10:50;15.50;95.70
37560;DHT22;23398;50.928;7.084;2022-10-22T06:13:16;15.50;95.70
37560;DHT22;23398;50.928;7.084;2022-10-22T06:15:41;15.50;95.90
37560;DHT22;23398;50.928;7.084;2022-10-22T06:18:07;15.50;96.10
37560;DHT22;23398;50.928;7.084;2022-10-22T06:20:34;15.50;96.40
37560;DHT22;23398;50.928;7.084;2022-10-22T06:22:59;15.60;96.70
37560;DHT22;23398;50.928;7.084;2022-10-22T06:25:25;15.60;96.80
37560;DHT22;23398;50.928;7.084;2022-10-22T06:27:50;15.60;97.10
37560;DHT22;23398;50.928;7.084;2022-10-22T06:30:16;15.60;97.30
37560;DHT22;23398;50.928;7.084;2022-10-22T06:32:42;15.80;97.70
37560;DHT22;23398;50.928;7.084;2022-10-22T06:35:07;15.80;97.90
37560;DHT22;23398;50.928;7.084;2022-10-22T06:37:33;15.90;98.20
37560;DHT22;23398;50.928;7.084;2022-10-22T06:39:59;16.20;98.50
37560;DHT22;23398;50.928;7.084;2022-10-22T06:42:24;16.10;98.60
37560;DHT22;23398;50.928;7.084;2022-10-22T06:44:50;16.30;98.80
37560;DHT22;23398;50.928;7.084;2022-10-22T06:47:15;16.30;98.80
37560;DHT22;23398;50.928;7.084;2022-10-22T06:49:41;16.40;98.90
37560;DHT22;23398;50.928;7.084;2022-10-22T06:52:07;16.50;98.90
37560;DHT22;23398;50.928;7.084;2022-10-22T06:54:32;16.60;98.80
37560;DHT22;23398;50.928;7.084;2022-10-22T06:56:58;16.70;98.70
37560;DHT22;23398;50.928;7.084;2022-10-22T06:59:23;16.80;98.40
37560;DHT22;23398;50.928;7.084;2022-10-22T07:01:49;16.90;98.30
37560;DHT22;23398;50.928;7.084;2022-10-22T07:04:14;17.00;98.20
37560;DHT22;23398;50.928;7.084;2022-10-22T07:06:40;17.00;98.00
37560;DHT22;23398;50.928;7.084;2022-10-22T07:09:05;17.20;97.80
37560;DHT22;23398;50.928;7.084;2022-10-22T07:11:43;17.30;97.50
37560;DHT22;23398;50.928;7.084;2022-10-22T07:14:09;17.50;97.20
37560;DHT22;23398;50.928;7.084;2022-10-22T07:16:35;17.30;96.70
37560;DHT22;23398;50.928;7.084;2022-10-22T07:19:03;17.40;96.40
37560;DHT22;23398;50.928;7.084;2022-10-22T07:21:30;17.40;96.10
37560;DHT22;23398;50.928;7.084;2022-10-22T07:23:56;17.40;95.90
37560;DHT22;23398;50.928;7.084;2022-10-22T07:26:21;17.50;95.80
37560;DHT22;23398;50.928;7.084;2022-10-22T07:28:49;17.50;95.70
37560;DHT22;23398;50.928;7.084;2022-10-22T07:31:17;17.60;95.70
37560;DHT22;23398;50.928;7.084;2022-10-22T07:33:43;17.60;95.50
37560;DHT22;23398;50.928;7.084;2022-10-22T07:36:14;17.60;95.30
37560;DHT22;23398;50.928;7.084;2022-10-22T07:38:52;17.60;95.10
37560;DHT22;23398;50.928;7.084;2022-10-22T07:41:18;17.70;95.00
37560;DHT22;23398;50.928;7.084;2022-10-22T07:43:44;17.70;94.90
37560;DHT22;23398;50.928;7.084;2022-10-22T07:46:10;17.80;94.90
37560;DHT22;23398;50.928;7.084;2022-10-22T07:48:36;17.80;94.90
37560;DHT22;23398;50.928;7.084;2022-10-22T07:51:02;17.90;95.30
37560;DHT22;23398;50.928;7.084;2022-10-22T07:53:28;18.00;96.20
37560;DHT22;23398;50.928;7.084;2022-10-22T07:55:53;18.10;97.70
37560;DHT22;23398;50.928;7.084;2022-10-22T07:58:20;18.50;99.90
37560;DHT22;23398;50.928;7.084;2022-10-22T08:00:47;19.10;99.90
37560;DHT22;23398;50.928;7.084;2022-10-22T08:03:14;19.90;99.90
37560;DHT22;23398;50.928;7.084;2022-10-22T08:05:40;20.90;99.90
37560;DHT22;23398;50.928;7.084;2022-10-22T08:08:08;22.30;99.30
37560;DHT22;23398;50.928;7.084;2022-10-22T08:10:34;23.10;97.20
37560;DHT22;23398;50.928;7.084;2022-10-22T08:13:00;24.10;94.30
37560;DHT22;23398;50.928;7.084;2022-10-22T08:15:25;25.10;90.70
37560;DHT22;23398;50.928;7.084;2022-10-22T08:17:51;25.80;83.60
37560;DHT22;23398;50.928;7.084;2022-10-22T08:20:18;26.30;78.90
37560;DHT22;23398;50.928;7.084;2022-10-22T08:22:44;26.60;75.00
37560;DHT22;23398;50.928;7.084;2022-10-22T08:25:10;26.80;72.00
37560;DHT22;23398;50.928;7.084;2022-10-22T08:27:36;26.80;70.00
37560;DHT22;23398;50.928;7.084;2022-10-22T08:30:03;26.70;68.80
37560;DHT22;23398;50.928;7.084;2022-10-22T08:32:29;26.60;68.10
37560;DHT22;23398;50.928;7.084;2022-10-22T08:34:55;26.50;67.80
37560;DHT22;23398;50.928;7.084;2022-10-22T08:37:20;26.20;67.40
37560;DHT22;23398;50.928;7.084;2022-10-22T08:39:46;26.00;67.20
37560;DHT22;23398;50.928;7.084;2022-10-22T08:47:43;25.20;67.20
37560;DHT22;23398;50.928;7.084;2022-10-22T08:50:13;24.90;68.10
37560;DHT22;23398;50.928;7.084;2022-10-22T08:52:43;24.60;68.20
37560;DHT22;23398;50.928;7.084;2022-10-22T08:55:14;24.30;68.50
37560;DHT22;23398;50.928;7.084;2022-10-22T09:00:57;23.70;68.70
37560;DHT22;23398;50.928;7.084;2022-10-22T09:06:21;23.30;69.50
37560;DHT22;23398;50.928;7.084;2022-10-22T09:08:48;23.10;70.20
37560;DHT22;23398;50.928;7.084;2022-10-22T09:11:17;22.90;71.00
37560;DHT22;23398;50.928;7.084;2022-10-22T09:13:45;22.70;71.20
37560;DHT22;23398;50.928;7.084;2022-10-22T09:24:38;22.30;72.50
37560;DHT22;23398;50.928;7.084;2022-10-22T09:27:17;22.20;72.90
37560;DHT22;23398;50.928;7.084;2022-10-22T09:29:44;22.10;73.20
37560;DHT22;23398;50.928;7.084;2022-10-22T09:32:10;22.10;73.70
37560;DHT22;23398;50.928;7.084;2022-10-22T09:34:36;22.00;73.80
37560;DHT22;23398;50.928;7.084;2022-10-22T09:37:05;22.00;74.00
37560;DHT22;23398;50.928;7.084;2022-10-22T09:39:37;21.90;74.20
37560;DHT22;23398;50.928;7.084;2022-10-22T09:42:04;21.90;74.60
37560;DHT22;23398;50.928;7.084;2022-10-22T09:44:33;21.90;74.80
37560;DHT22;23398;50.928;7.084;2022-10-22T09:47:06;21.80;74.70
37560;DHT22;23398;50.928;7.084;2022-10-22T09:49:36;21.80;75.00
37560;DHT22;23398;50.928;7.084;2022-10-22T09:52:02;21.80;75.00
37560;DHT22;23398;50.928;7.084;2022-10-22T09:54:41;21.70;75.30
37560;DHT22;23398;50.928;7.084;2022-10-22T09:57:16;21.70;75.90
37560;DHT22;23398;50.928;7.084;2022-10-22T09:59:43;21.70;76.20
37560;DHT22;23398;50.928;7.084;2022-10-22T10:02:17;21.70;76.50
37560;DHT22;23398;50.928;7.084;2022-10-22T10:07:25;21.70;76.20
37560;DHT22;23398;50.928;7.084;2022-10-22T10:09:52;21.80;76.30
37560;DHT22;23398;50.928;7.084;2022-10-22T10:12:40;21.90;76.70
37560;DHT22;23398;50.928;7.084;2022-10-22T10:15:27;21.90;75.70
37560;DHT22;23398;50.928;7.084;2022-10-22T10:23:06;22.00;75.00
37560;DHT22;23398;50.928;7.084;2022-10-22T10:28:41;22.30;75.40
37560;DHT22;23398;50.928;7.084;2022-10-22T10:31:17;22.10;75.90
37560;DHT22;23398;50.928;7.084;2022-10-22T10:34:23;22.10;75.70
37560;DHT22;23398;50.928;7.084;2022-10-22T10:37:09;22.10;75.20
37560;DHT22;23398;50.928;7.084;2022-10-22T10:42:35;22.10;74.70
37560;DHT22;23398;50.928;7.084;2022-10-22T10:50:49;22.10;74.50
37560;DHT22;23398;50.928;7.084;2022-10-22T10:53:50;22.10;74.20
37560;DHT22;23398;50.928;7.084;2022-10-22T10:56:39;22.10;73.70
37560;DHT22;23398;50.928;7.084;2022-10-22T10:59:31;22.10;74.10
37560;DHT22;23398;50.928;7.084;2022-10-22T11:07:45;22.30;73.70
37560;DHT22;23398;50.928;7.084;2022-10-22T11:10:35;22.30;73.40
37560;DHT22;23398;50.928;7.084;2022-10-22T11:13:10;22.40;72.50
37560;DHT22;23398;50.928;7.084;2022-10-22T11:15:39;22.50;72.70
37560;DHT22;23398;50.928;7.084;2022-10-22T11:18:16;22.60;73.20
37560;DHT22;23398;50.928;7.084;2022-10-22T11:21:13;22.70;72.80
37560;DHT22;23398;50.928;7.084;2022-10-22T11:23:48;22.80;72.30
37560;DHT22;23398;50.928;7.084;2022-10-22T11:26:37;22.90;71.90
37560;DHT22;23398;50.928;7.084;2022-10-22T11:29:12;23.00;71.20
37560;DHT22;23398;50.928;7.084;2022-10-22T11:31:40;23.10;70.80
37560;DHT22;23398;50.928;7.084;2022-10-22T11:36:39;23.20;69.00
37560;DHT22;23398;50.928;7.084;2022-10-22T11:39:05;23.30;69.40
37560;DHT22;23398;50.928;7.084;2022-10-22T11:41:32;23.30;68.40
37560;DHT22;23398;50.928;7.084;2022-10-22T11:44:20;23.30;68.40
37560;DHT22;23398;50.928;7.084;2022-10-22T11:47:08;23.30;67.70
37560;DHT22;23398;50.928;7.084;2022-10-22T11:49:58;23.20;67.60
37560;DHT22;23398;50.928;7.084;2022-10-22T11:55:02;23.20;67.50
37560;DHT22;23398;50.928;7.084;2022-10-22T11:57:35;23.10;67.20
37560;DHT22;23398;50.928;7.084;2022-10-22T12:00:09;23.10;66.90
37560;DHT22;23398;50.928;7.084;2022-10-22T12:02:45;23.00;67.00
37560;DHT22;23398;50.928;7.084;2022-10-22T12:08:13;23.00;67.10
37560;DHT22;23398;50.928;7.084;2022-10-22T12:10:59;23.00;67.00
37560;DHT22;23398;50.928;7.084;2022-10-22T12:13:30;22.90;66.50
37560;DHT22;23398;50.928;7.084;2022-10-22T12:15:58;22.90;66.90
37560;DHT22;23398;50.928;7.084;2022-10-22T12:18:34;23.00;67.10
37560;DHT22;23398;50.928;7.084;2022-10-22T12:21:03;22.90;67.10
37560;DHT22;23398;50.928;7.084;2022-10-22T12:23:32;22.90;67.50
37560;DHT22;23398;50.928;7.084;2022-10-22T12:25:58;22.90;67.60
37560;DHT22;23398;50.928;7.084;2022-10-22T12:28:24;22.90;67.60
37560;DHT22;23398;50.928;7.084;2022-10-22T12:30:50;22.90;67.40
37560;DHT22;23398;50.928;7.084;2022-10-22T12:33:22;22.90;67.40
37560;DHT22;23398;50.928;7.084;2022-10-22T12:35:48;22.90;67.20
37560;DHT22;23398;50.928;7.084;2022-10-22T12:38:19;22.90;67.40
37560;DHT22;23398;50.928;7.084;2022-10-22T12:40:46;22.90;67.90
37560;DHT22;23398;50.928;7.084;2022-10-22T12:43:32;23.00;68.10
37560;DHT22;23398;50.928;7.084;2022-10-22T12:45:58;23.00;68.30
37560;DHT22;23398;50.928;7.084;2022-10-22T12:48:27;23.20;68.20
37560;DHT22;23398;50.928;7.084;2022-10-22T12:50:59;23.20;68.80
37560;DHT22;23398;50.928;7.084;2022-10-22T12:53:26;23.30;68.00
37560;DHT22;23398;50.928;7.084;2022-10-22T12:55:54;23.40;68.00
37560;DHT22;23398;50.928;7.084;2022-10-22T12:58:24;23.60;66.90
37560;DHT22;23398;50.928;7.084;2022-10-22T13:00:56;23.60;66.00
37560;DHT22;23398;50.928;7.084;2022-10-22T13:03:33;23.70;65.70
37560;DHT22;23398;50.928;7.084;2022-10-22T13:11:37;23.80;64.60
37560;DHT22;23398;50.928;7.084;2022-10-22T13:14:27;23.80;64.20
37560;DHT22;23398;50.928;7.084;2022-10-22T13:17:14;23.80;63.80
37560;DHT22;23398;50.928;7.084;2022-10-22T13:22:36;23.60;63.50
37560;DHT22;23398;50.928;7.084;2022-10-22T13:30:30;23.40;63.80
37560;DHT22;23398;50.928;7.084;2022-10-22T13:35:29;23.30;63.40
37560;DHT22;23398;50.928;7.084;2022-10-22T13:37:56;23.30;63.80
37560;DHT22;23398;50.928;7.084;2022-10-22T13:40:22;23.20;63.60
37560;DHT22;23398;50.928;7.084;2022-10-22T13:42:47;23.20;63.80
37560;DHT22;23398;50.928;7.084;2022-10-22T13:45:14;23.10;64.20
37560;DHT22;23398;50.928;7.084;2022-10-22T13:47:39;23.10;64.20
37560;DHT22;23398;50.928;7.084;2022-10-22T13:50:15;23.10;64.20
37560;DHT22;23398;50.928;7.084;2022-10-22T13:52:44;23.10;64.10
37560;DHT22;23398;50.928;7.084;2022-10-22T13:55:17;23.10;64.10
37560;DHT22;23398;50.928;7.084;2022-10-22T13:57:44;23.10;64.10
37560;DHT22;23398;50.928;7.084;2022-10-22T14:00:12;23.10;64.40
37560;DHT22;23398;50.928;7.084;2022-10-22T14:02:38;23.10;63.90
37560;DHT22;23398;50.928;7.084;2022-10-22T14:05:04;23.10;64.40
37560;DHT22;23398;50.928;7.084;2022-10-22T14:07:34;23.00;65.00
37560;DHT22;23398;50.928;7.084;2022-10-22T14:10:00;23.10;64.80
37560;DHT22;23398;50.928;7.084;2022-10-22T14:12:25;23.10;65.00
37560;DHT22;23398;50.928;7.084;2022-10-22T14:14:52;23.10;65.20
37560;DHT22;23398;50.928;7.084;2022-10-22T14:17:18;23.20;65.30
37560;DHT22;23398;50.928;7.084;2022-10-22T14:19:46;23.30;64.90
37560;DHT22;23398;50.928;7.084;2022-10-22T14:22:14;23.50;64.70
37560;DHT22;23398;50.928;7.084;2022-10-22T14:24:40;23.50;64.30
37560;DHT22;23398;50.928;7.084;2022-10-22T14:27:05;23.60;63.90
37560;DHT22;23398;50.928;7.084;2022-10-22T14:29:31;23.70;63.80
37560;DHT22;23398;50.928;7.084;2022-10-22T14:31:56;23.70;63.80
37560;DHT22;23398;50.928;7.084;2022-10-22T14:34:22;23.70;63.30
37560;DHT22;23398;50.928;7.084;2022-10-22T14:36:47;23.80;63.30
37560;DHT22;23398;50.928;7.084;2022-10-22T14:39:13;23.90;62.90
37560;DHT22;23398;50.928;7.084;2022-10-22T14:41:39;23.90;62.90
37560;DHT22;23398;50.928;7.084;2022-10-22T14:44:05;24.10;63.40
37560;DHT22;23398;50.928;7.084;2022-10-22T14:46:30;23.90;64.00
37560;DHT22;23398;50.928;7.084;2022-10-22T14:48:56;23.90;64.60
37560;DHT22;23398;50.928;7.084;2022-10-22T14:51:22;23.90;65.00
37560;DHT22;23398;50.928;7.084;2022-10-22T14:53:47;23.90;65.50
37560;DHT22;23398;50.928;7.084;2022-10-22T14:56:16;23.90;65.20
37560;DHT22;23398;50.928;7.084;2022-10-22T14:58:42;23.90;63.70
37560;DHT22;23398;50.928;7.084;2022-10-22T15:01:08;23.90;63.70
37560;DHT22;23398;50.928;7.084;2022-10-22T15:03:34;23.80;63.70
37560;DHT22;23398;50.928;7.084;2022-10-22T15:06:00;23.80;63.90
37560;DHT22;23398;50.928;7.084;2022-10-22T15:08:25;23.70;64.00
37560;DHT22;23398;50.928;7.084;2022-10-22T15:11:21;23.70;64.20
37560;DHT22;23398;50.928;7.084;2022-10-22T15:13:46;23.60;63.50
37560;DHT22;23398;50.928;7.084;2022-10-22T15:16:14;23.50;64.30
37560;DHT22;23398;50.928;7.084;2022-10-22T15:18:39;23.50;64.90
37560;DHT22;23398;50.928;7.084;2022-10-22T15:21:17;23.40;64.40
37560;DHT22;23398;50.928;7.084;2022-10-22T15:23:43;23.30;63.70
37560;DHT22;23398;50.928;7.084;2022-10-22T15:26:10;23.30;64.30
37560;DHT22;23398;50.928;7.084;2022-10-22T15:28:37;23.30;65.50
37560;DHT22;23398;50.928;7.084;2022-10-22T15:31:03;23.20;65.20
37560;DHT22;23398;50.928;7.084;2022-10-22T15:33:29;23.20;65.20
37560;DHT22;23398;50.928;7.084;2022-10-22T15:35:55;23.40;65.50
37560;DHT22;23398;50.928;7.084;2022-10-22T15:38:21;23.00;65.50
37560;DHT22;23398;50.928;7.084;2022-10-22T15:40:47;23.10;64.70
37560;DHT22;23398;50.928;7.084;2022-10-22T15:43:13;22.90;64.90
37560;DHT22;23398;50.928;7.084;2022-10-22T15:45:39;22.90;66.10
37560;DHT22;23398;50.928;7.084;2022-10-22T15:48:05;22.80;65.70
37560;DHT22;23398;50.928;7.084;2022-10-22T15:50:31;22.70;65.60
37560;DHT22;23398;50.928;7.084;2022-10-22T15:52:56;22.60;65.80
37560;DHT22;23398;50.928;7.084;2022-10-22T15:55:22;22.50;65.90
37560;DHT22;23398;50.928;7.084;2022-10-22T15:57:48;22.50;66.20
37560;DHT22;23398;50.928;7.084;2022-10-22T16:00:20;22.70;66.70
37560;DHT22;23398;50.928;7.084;2022-10-22T16:02:46;22.30;66.60
37560;DHT22;23398;50.928;7.084;2022-10-22T16:05:11;22.20;67.00
37560;DHT22;23398;50.928;7.084;2022-10-22T16:07:37;22.50;68.40
37560;DHT22;23398;50.928;7.084;2022-10-22T16:10:03;22.00;68.70
37560;DHT22;23398;50.928;7.084;2022-10-22T16:12:29;21.90;69.30
37560;DHT22;23398;50.928;7.084;2022-10-22T16:14:54;21.90;69.90
37560;DHT22;23398;50.928;7.084;2022-10-22T16:17:20;21.80;70.20
37560;DHT22;23398;50.928;7.084;2022-10-22T16:19:46;21.70;70.50
37560;DHT22;23398;50.928;7.084;2022-10-22T16:22:12;21.60;70.50
37560;DHT22;23398;50.928;7.084;2022-10-22T16:24:40;21.60;71.00
37560;DHT22;23398;50.928;7.084;2022-10-22T16:27:06;21.40;71.20
37560;DHT22;23398;50.928;7.084;2022-10-22T16:29:32;21.40;71.70
37560;DHT22;23398;50.928;7.084;2022-10-22T16:31:58;21.20;71.00
37560;DHT22;23398;50.928;7.084;2022-10-22T16:34:25;21.10;70.80
37560;DHT22;23398;50.928;7.084;2022-10-22T16:36:51;20.90;70.80
37560;DHT22;23398;50.928;7.084;2022-10-22T16:39:18;20.80;70.90
37560;DHT22;23398;50.928;7.084;2022-10-22T16:41:44;20.70;71.20
37560;DHT22;23398;50.928;7.084;2022-10-22T16:44:10;20.60;71.50
37560;DHT22;23398;50.928;7.084;2022-10-22T16:46:36;20.40;71.70
37560;DHT22;23398;50.928;7.084;2022-10-22T16:49:06;20.30;72.00
37560;DHT22;23398;50.928;7.084;2022-10-22T16:51:32;20.20;72.30
37560;DHT22;23398;50.928;7.084;2022-10-22T16:53:57;20.00;72.50
37560;DHT22;23398;50.928;7.084;2022-10-22T16:56:24;19.90;72.90
37560;DHT22;23398;50.928;7.084;2022-10-22T16:58:52;19.80;73.30
37560;DHT22;23398;50.928;7.084;2022-10-22T17:01:19;19.70;73.90
37560;DHT22;23398;50.928;7.084;2022-10-22T17:03:46;19.60;74.30
37560;DHT22;23398;50.928;7.084;2022-10-22T17:06:11;19.50;74.70
37560;DHT22;23398;50.928;7.084;2022-10-22T17:08:38;19.40;74.90
37560;DHT22;23398;50.928;7.084;2022-10-22T17:11:11;19.40;75.30
37560;DHT22;23398;50.928;7.084;2022-10-22T17:13:39;19.30;75.80